Time;durP1;ratioP1;P1;durP2;ratioP2;P2;SDS_P1;SDS_P2;PMS_P1;PMS_P2;Temp;Humidity;BMP_temperature;BMP_pressure;BME280_temperature;BME280_humidity;BME280_pressure;Samples;Min_cycle;Max_cycle;Signal;HPM_P1;HPM_P2
2023/09/16 00:02:00;;;;;;;13.82;11.68;;;;;;;;;;5106078;28;20048;-71
2023/09/16 00:04:26;;;;;;;14.05;11.90;;;;;;;;;;5098596;28;20024;-71
2023/09/16 00:06:52;;;;;;;13.20;11.80;;;;;;;;;;5092073;28;20505;-71
2023/09/16 00:09:18;;;;;;;13.68;11.20;;;;;;;;;;5096934;28;20404;-72
2023/09/16 00:11:44;;;;;;;14.05;12.55;;;;;;;;;;5105923;28;20055;-71
2023/09/16 00:14:10;;;;;;;12.85;11.45;;;;;;;;;;5109091;28;20403;-73
2023/09/16 00:16:35;;;;;;;14.00;11.88;;;;;;;;;;5099702;28;20030;-71
2023/09/16 00:19:03;;;;;;;14.80;12.30;;;;;;;;;;5098662;28;20500;-71
2023/09/16 00:21:29;;;;;;;13.55;11.70;;;;;;;;;;5098905;28;20197;-71
2023/09/16 00:23:55;;;;;;;13.07;11.63;;;;;;;;;;5086732;28;20039;-71
2023/09/16 00:26:21;;;;;;;16.05;12.30;;;;;;;;;;5104461;28;20060;-71
2023/09/16 00:28:47;;;;;;;13.73;12.30;;;;;;;;;;5107506;28;20106;-69
2023/09/16 00:31:13;;;;;;;12.52;11.20;;;;;;;;;;5102161;28;20016;-72
2023/09/16 00:33:39;;;;;;;14.90;12.32;;;;;;;;;;5098061;28;20560;-72
2023/09/16 00:36:05;;;;;;;15.75;12.13;;;;;;;;;;5106358;28;20059;-71
2023/09/16 00:38:31;;;;;;;14.63;12.90;;;;;;;;;;5102870;28;20021;-72
2023/09/16 00:40:57;;;;;;;15.48;12.82;;;;;;;;;;5096877;28;20096;-71
2023/09/16 00:43:23;;;;;;;16.42;12.27;;;;;;;;;;5100207;28;20079;-72
2023/09/16 00:45:49;;;;;;;15.73;13.18;;;;;;;;;;5098030;28;20047;-69
2023/09/16 00:48:17;;;;;;;14.95;12.85;;;;;;;;;;5107164;28;20032;-71
2023/09/16 00:50:44;;;;;;;14.18;11.90;;;;;;;;;;5102750;28;20024;-71
2023/09/16 00:53:11;;;;;;;14.23;12.10;;;;;;;;;;5100630;28;20031;-70
2023/09/16 00:55:38;;;;;;;14.40;12.90;;;;;;;;;;5105574;28;20095;-71
2023/09/16 00:58:04;;;;;;;14.57;12.50;;;;;;;;;;5089563;28;20032;-71
2023/09/16 01:00:30;;;;;;;16.45;13.15;;;;;;;;;;5106072;28;20445;-71
2023/09/16 01:03:00;;;;;;;15.30;13.15;;;;;;;;;;5106070;28;20039;-71
2023/09/16 01:05:26;;;;;;;16.27;13.65;;;;;;;;;;5107348;28;20424;-71
2023/09/16 01:07:52;;;;;;;15.77;13.38;;;;;;;;;;5098457;28;20024;-70
2023/09/16 01:10:18;;;;;;;14.68;12.02;;;;;;;;;;5107632;28;20372;-71
2023/09/16 01:12:48;;;;;;;14.43;12.60;;;;;;;;;;5103229;28;20151;-71
2023/09/16 01:15:15;;;;;;;14.02;11.98;;;;;;;;;;5096665;28;20119;-71
2023/09/16 01:18:04;;;;;;;13.57;11.80;;;;;;;;;;5102740;28;20091;-72
2023/09/16 01:20:31;;;;;;;16.45;12.80;;;;;;;;;;5106771;28;20023;-71
2023/09/16 01:22:57;;;;;;;16.50;12.85;;;;;;;;;;5108341;28;20038;-71
2023/09/16 01:25:26;;;;;;;15.23;12.43;;;;;;;;;;5099230;28;20091;-72
2023/09/16 01:27:52;;;;;;;15.48;13.55;;;;;;;;;;5107184;28;20068;-71
2023/09/16 01:30:18;;;;;;;17.13;13.57;;;;;;;;;;5095555;28;20027;-71
2023/09/16 01:32:47;;;;;;;13.95;12.45;;;;;;;;;;5099296;28;20159;-71
2023/09/16 01:35:14;;;;;;;14.60;12.80;;;;;;;;;;5100671;28;20028;-71
2023/09/16 01:37:42;;;;;;;15.63;13.50;;;;;;;;;;5108541;28;20024;-71
2023/09/16 01:40:12;;;;;;;15.55;12.13;;;;;;;;;;5092611;28;20020;-71
2023/09/16 01:42:39;;;;;;;14.95;13.30;;;;;;;;;;5097334;28;20468;-70
2023/09/16 01:45:06;;;;;;;14.95;13.25;;;;;;;;;;5102391;28;20051;-70
2023/09/16 01:47:32;;;;;;;16.67;13.75;;;;;;;;;;5099350;28;20050;-71
2023/09/16 01:49:58;;;;;;;17.00;13.85;;;;;;;;;;5100376;28;20021;-70
2023/09/16 01:52:24;;;;;;;15.00;13.07;;;;;;;;;;5105235;28;20026;-72
2023/09/16 01:54:50;;;;;;;15.57;13.00;;;;;;;;;;5105064;28;20039;-71
2023/09/16 01:57:16;;;;;;;14.88;13.13;;;;;;;;;;5104812;28;20030;-71
2023/09/16 01:59:42;;;;;;;16.30;13.90;;;;;;;;;;5096514;28;20372;-70
2023/09/16 02:02:08;;;;;;;16.05;13.77;;;;;;;;;;5106547;28;20020;-71
2023/09/16 02:04:34;;;;;;;13.75;12.20;;;;;;;;;;5086644;28;20116;-71
2023/09/16 02:07:00;;;;;;;14.88;12.38;;;;;;;;;;5094980;28;20464;-71
2023/09/16 02:09:26;;;;;;;13.20;11.85;;;;;;;;;;5099073;28;20031;-71
2023/09/16 02:11:52;;;;;;;14.50;12.55;;;;;;;;;;5082129;28;20392;-71
2023/09/16 02:14:20;;;;;;;13.77;11.85;;;;;;;;;;5105630;28;20023;-72
2023/09/16 02:16:46;;;;;;;14.73;11.88;;;;;;;;;;5100130;28;20039;-70
2023/09/16 02:19:12;;;;;;;13.45;11.80;;;;;;;;;;5113158;28;20036;-71
2023/09/16 02:21:38;;;;;;;15.50;13.15;;;;;;;;;;5111625;28;20020;-70
2023/09/16 02:24:04;;;;;;;14.98;12.35;;;;;;;;;;5115733;28;20088;-71
2023/09/16 02:26:30;;;;;;;14.45;12.07;;;;;;;;;;5120760;28;20019;-71
2023/09/16 02:28:56;;;;;;;14.55;12.63;;;;;;;;;;5120900;28;20043;-71
2023/09/16 02:31:28;;;;;;;15.52;12.85;;;;;;;;;;5109770;28;20031;-71
2023/09/16 02:34:02;;;;;;;15.90;13.20;;;;;;;;;;5096192;28;20028;-71
2023/09/16 02:36:28;;;;;;;14.48;12.82;;;;;;;;;;5102375;28;20333;-71
2023/09/16 02:38:54;;;;;;;16.55;12.13;;;;;;;;;;5086501;28;20111;-71
2023/09/16 02:41:20;;;;;;;13.68;12.15;;;;;;;;;;5092757;28;20134;-71
2023/09/16 02:43:48;;;;;;;13.95;12.43;;;;;;;;;;5099163;28;20064;-69
2023/09/16 02:46:15;;;;;;;15.45;12.95;;;;;;;;;;5097106;28;20048;-72
2023/09/16 02:48:41;;;;;;;15.25;12.90;;;;;;;;;;5098605;28;20027;-71
2023/09/16 02:51:09;;;;;;;15.30;13.52;;;;;;;;;;5096987;28;20280;-71
2023/09/16 02:53:35;;;;;;;14.70;12.73;;;14.80;99.90;;;;;;5101860;28;20031;-71
2023/09/16 02:56:02;;;;;;;14.82;13.18;;;14.60;99.90;;;;;;5097450;28;20061;-71
2023/09/16 02:58:28;;;;;;;14.82;12.43;;;14.60;99.90;;;;;;5099466;28;20027;-71
2023/09/16 03:00:54;;;;;;;15.48;13.55;;;14.50;99.90;;;;;;5099792;28;20409;-71
2023/09/16 03:03:19;;;;;;;19.42;14.32;;;14.50;99.90;;;;;;5105329;28;20041;-71
2023/09/16 03:05:45;;;;;;;15.85;13.70;;;14.50;99.90;;;;;;5102427;28;20405;-70
2023/09/16 03:08:14;;;;;;;17.67;13.05;;;14.50;99.90;;;;;;5097298;28;20027;-71
2023/09/16 03:10:40;;;;;;;15.27;12.80;;;14.40;99.90;;;;;;5104795;28;20019;-71
2023/09/16 03:13:06;;;;;;;16.50;13.38;;;14.40;99.90;;;;;;5082014;28;20643;-70
2023/09/16 03:15:31;;;;;;;15.35;13.43;;;14.40;99.90;;;;;;5103928;28;20400;-71
2023/09/16 03:17:57;;;;;;;17.40;13.70;;;14.30;99.90;;;;;;5099355;28;20024;-70
2023/09/16 03:20:22;;;;;;;21.08;15.95;;;14.30;99.90;;;;;;5104778;28;20026;-71
2023/09/16 03:22:48;;;;;;;17.60;14.82;;;14.30;99.90;;;;;;5105877;28;20373;-69
2023/09/16 03:25:14;;;;;;;16.67;14.38;;;14.30;99.90;;;;;;5095446;28;20016;-70
2023/09/16 03:27:39;;;;;;;15.95;13.98;;;14.30;99.90;;;;;;5101939;28;20520;-71
2023/09/16 03:30:05;;;;;;;15.80;14.07;;;14.30;99.90;;;;;;5097875;28;20207;-71
2023/09/16 03:32:31;;;;;;;17.08;14.70;;;14.20;99.90;;;;;;5110015;28;20023;-72
2023/09/16 03:34:57;;;;;;;16.95;14.75;;;14.20;99.90;;;;;;5096880;28;20036;-70
2023/09/16 03:37:22;;;;;;;18.50;15.82;;;14.20;99.90;;;;;;5096362;28;20048;-71
2023/09/16 03:39:48;;;;;;;17.02;14.68;;;14.20;99.90;;;;;;5099807;28;20487;-69
2023/09/16 03:42:14;;;;;;;19.38;15.65;;;14.20;99.90;;;;;;5100307;28;20030;-71
2023/09/16 03:44:39;;;;;;;19.25;15.93;;;14.20;99.90;;;;;;5102039;28;20480;-70
2023/09/16 03:47:07;;;;;;;17.08;14.55;;;14.20;99.90;;;;;;5093343;28;20085;-71
2023/09/16 03:49:33;;;;;;;19.00;15.15;;;14.20;99.90;;;;;;5103133;28;20075;-72
2023/09/16 03:51:59;;;;;;;18.30;14.82;;;14.20;99.90;;;;;;5100294;28;20100;-72
2023/09/16 03:54:26;;;;;;;15.93;14.27;;;14.20;99.90;;;;;;5091666;28;20028;-71
2023/09/16 03:56:51;;;;;;;18.63;14.82;;;14.10;99.90;;;;;;5091587;28;20519;-71
2023/09/16 03:59:17;;;;;;;17.25;15.30;;;14.10;99.90;;;;;;5095768;28;20043;-72
2023/09/16 04:01:43;;;;;;;16.45;13.98;;;14.10;99.90;;;;;;5098594;28;20046;-72
2023/09/16 04:04:08;;;;;;;16.38;13.88;;;14.10;99.90;;;;;;5096134;28;20063;-72
2023/09/16 04:06:34;;;;;;;16.45;14.23;;;14.00;99.90;;;;;;5095154;28;20187;-72
2023/09/16 04:09:00;;;;;;;16.80;14.35;;;14.00;99.90;;;;;;5094132;28;20023;-72
2023/09/16 04:11:26;;;;;;;19.10;15.38;;;14.00;99.90;;;;;;5098030;28;20082;-72
2023/09/16 04:13:52;;;;;;;17.40;14.80;;;14.00;99.90;;;;;;5093349;28;20038;-72
2023/09/16 04:16:18;;;;;;;19.73;15.50;;;14.00;99.90;;;;;;5097351;28;20020;-72
2023/09/16 04:18:43;;;;;;;18.10;15.35;;;14.00;99.90;;;;;;5103735;28;20443;-71
2023/09/16 04:21:09;;;;;;;17.80;15.32;;;14.00;99.90;;;;;;5090883;28;20122;-72
2023/09/16 04:23:35;;;;;;;19.10;15.82;;;14.00;99.90;;;;;;5106560;28;20387;-71
2023/09/16 04:26:00;;;;;;;21.98;17.95;;;14.00;99.90;;;;;;5095872;28;20024;-71
2023/09/16 04:28:27;;;;;;;24.45;18.15;;;14.00;99.90;;;;;;5094199;28;20028;-72
2023/09/16 04:30:53;;;;;;;25.58;19.27;;;14.10;99.90;;;;;;5095115;28;20063;-72
2023/09/16 04:33:20;;;;;;;25.63;18.15;;;14.20;99.90;;;;;;5092359;28;20071;-70
2023/09/16 04:35:46;;;;;;;23.67;17.15;;;14.20;99.90;;;;;;5097775;28;20028;-69
2023/09/16 04:38:13;;;;;;;24.52;19.30;;;14.30;99.90;;;;;;5092860;28;20025;-71
2023/09/16 04:40:41;;;;;;;22.80;18.38;;;14.30;99.90;;;;;;5092248;28;20024;-70
2023/09/16 04:43:06;;;;;;;21.92;17.95;;;14.30;99.90;;;;;;5093057;28;20028;-70
2023/09/16 04:45:32;;;;;;;21.08;17.25;;;14.30;99.90;;;;;;5077839;28;20183;-70
2023/09/16 04:47:58;;;;;;;23.50;18.85;;;14.30;99.90;;;;;;5060541;28;20484;-70
2023/09/16 04:50:25;;;;;;;23.02;18.40;;;14.30;99.90;;;;;;5068439;28;20017;-72
2023/09/16 04:52:50;;;;;;;22.45;18.23;;;14.30;99.90;;;;;;5067567;28;20039;-69
2023/09/16 04:55:16;;;;;;;21.90;17.77;;;14.30;99.90;;;;;;5071557;28;20025;-71
2023/09/16 04:57:42;;;;;;;21.33;16.05;;;14.20;99.90;;;;;;5065096;28;20032;-70
2023/09/16 05:00:08;;;;;;;20.60;17.20;;;14.10;99.90;;;;;;5067640;28;20248;-70
2023/09/16 05:02:34;;;;;;;19.75;17.27;;;14.10;99.90;;;;;;5062672;28;20063;-71
2023/09/16 05:05:00;;;;;;;21.10;17.10;;;14.10;99.90;;;;;;5058441;28;20056;-71
2023/09/16 05:07:27;;;;;;;20.65;17.45;;;14.00;99.90;;;;;;5065619;28;20099;-71
2023/09/16 05:09:52;;;;;;;25.40;18.63;;;14.00;99.90;;;;;;5064858;28;20377;-71
2023/09/16 05:12:18;;;;;;;25.20;20.42;;;14.00;99.90;;;;;;5071658;28;20017;-71
2023/09/16 05:14:45;;;;;;;22.75;18.77;;;14.00;99.90;;;;;;5061477;28;20029;-70
2023/09/16 05:17:11;;;;;;;25.60;20.92;;;14.00;99.90;;;;;;5073110;28;20031;-71
2023/09/16 05:19:37;;;;;;;27.90;20.73;;;14.00;99.90;;;;;;5088231;28;20016;-71
2023/09/16 05:22:04;;;;;;;27.48;21.58;;;14.10;99.90;;;;;;5088194;28;20530;-71
2023/09/16 05:24:32;;;;;;;27.42;21.58;;;14.20;99.90;;;;;;5082362;28;20028;-71
2023/09/16 05:26:59;;;;;;;29.48;21.55;;;14.20;99.90;;;;;;5082128;28;20025;-71
2023/09/16 05:29:25;;;;;;;29.25;21.92;;;14.30;99.90;;;;;;5077004;28;20020;-71
2023/09/16 05:31:50;;;;;;;29.95;22.33;;;14.30;99.90;;;;;;5076440;28;20438;-71
2023/09/16 05:34:16;;;;;;;29.75;23.45;;;14.40;99.90;;;;;;5073258;28;20484;-71
2023/09/16 05:36:41;;;;;;;27.38;21.88;;;14.50;99.90;;;;;;5085759;28;20028;-70
2023/09/16 05:39:07;;;;;;;25.70;19.20;;;14.60;99.90;;;;;;5064896;28;20085;-71
2023/09/16 05:41:33;;;;;;;25.52;20.50;;;14.70;99.90;;;;;;5073782;28;20050;-71
2023/09/16 05:43:58;;;;;;;21.27;18.58;;;14.70;99.90;;;;;;5077412;28;20036;-71
2023/09/16 05:46:24;;;;;;;24.42;20.35;;;14.80;99.90;;;;;;5092157;28;20043;-71
2023/09/16 05:48:50;;;;;;;21.75;18.10;;;14.80;99.90;;;;;;5096643;28;20112;-70
2023/09/16 05:51:15;;;;;;;20.77;17.67;;;14.80;99.90;;;;;;5094738;28;20099;-71
2023/09/16 05:53:42;;;;;;;21.25;16.70;;;14.80;99.90;;;;;;5095527;28;20111;-71
2023/09/16 05:56:08;;;;;;;18.98;15.15;;;14.90;99.90;;;;;;5098189;28;20452;-71
2023/09/16 05:58:34;;;;;;;19.63;16.80;;;14.90;99.90;;;;;;5094692;28;20085;-72
2023/09/16 06:01:00;;;;;;;19.73;16.83;;;14.90;99.90;;;;;;5096382;28;20422;-70
2023/09/16 06:03:26;;;;;;;21.48;17.55;;;15.00;99.90;;;;;;5098697;28;20114;-71
2023/09/16 06:05:59;;;;;;;20.45;18.00;;;15.10;99.90;;;;;;5098705;28;20016;-71
2023/09/16 06:08:24;;;;;;;22.15;18.63;;;15.20;99.90;;;;;;5097284;28;20030;-71
2023/09/16 06:10:50;;;;;;;21.35;17.85;;;15.20;99.90;;;;;;5099927;28;20028;-70
2023/09/16 06:13:15;;;;;;;20.52;17.42;;;15.30;99.90;;;;;;5094585;28;20106;-71
2023/09/16 06:15:43;;;;;;;21.17;18.45;;;15.30;99.90;;;;;;5098011;28;20026;-71
2023/09/16 06:18:08;;;;;;;27.60;17.80;;;15.40;99.90;;;;;;5098102;28;20249;-72
2023/09/16 06:20:34;;;;;;;19.98;16.80;;;15.50;99.90;;;;;;5097586;28;20104;-71
2023/09/16 06:23:03;;;;;;;18.17;15.55;;;15.60;99.90;;;;;;5091319;28;20028;-70
2023/09/16 06:25:30;;;;;;;18.67;15.25;;;15.70;99.90;;;;;;5100231;28;20443;-71
2023/09/16 06:27:58;;;;;;;20.10;17.50;;;15.70;99.90;;;;;;5098673;28;20030;-71
2023/09/16 06:30:23;;;;;;;17.98;15.57;;;15.80;99.90;;;;;;5095934;28;20376;-71
2023/09/16 06:32:49;;;;;;;16.60;14.77;;;15.90;99.90;;;;;;5098682;28;20039;-70
2023/09/16 06:35:15;;;;;;;19.67;15.32;;;16.00;99.90;;;;;;5100230;28;20032;-70
2023/09/16 06:37:40;;;;;;;18.73;15.88;;;16.10;99.90;;;;;;5092069;28;20035;-71
2023/09/16 06:40:06;;;;;;;23.17;17.02;;;16.20;99.90;;;;;;5095950;28;20580;-71
2023/09/16 06:42:32;;;;;;;18.45;15.05;;;16.20;99.90;;;;;;5104174;28;20022;-73
2023/09/16 06:44:57;;;;;;;19.90;15.90;;;16.40;99.90;;;;;;5075270;28;20048;-72
2023/09/16 06:47:26;;;;;;;20.15;16.95;;;16.40;99.90;;;;;;5056122;28;20033;-73
2023/09/16 06:49:52;;;;;;;19.20;16.40;;;16.60;99.90;;;;;;5074709;28;20143;-73
2023/09/16 06:52:18;;;;;;;19.55;15.98;;;16.80;99.90;;;;;;5080573;28;20085;-68
2023/09/16 06:54:45;;;;;;;19.58;15.80;;;16.90;99.90;;;;;;5079426;28;20032;-70
2023/09/16 06:57:10;;;;;;;19.75;16.38;;;17.00;99.90;;;;;;5073359;28;20104;-69
2023/09/16 06:59:36;;;;;;;18.45;15.40;;;17.10;99.90;;;;;;5076413;28;20107;-80
2023/09/16 07:02:02;;;;;;;16.70;14.90;;;17.20;99.90;;;;;;5075662;28;20032;-70
2023/09/16 07:04:27;;;;;;;17.42;14.63;;;17.30;99.90;;;;;;5060850;28;20035;-70
2023/09/16 07:06:53;;;;;;;19.17;14.85;;;17.40;99.90;;;;;;5060475;28;20028;-70
2023/09/16 07:09:18;;;;;;;23.98;15.32;;;17.50;99.90;;;;;;5062253;28;20024;-71
2023/09/16 07:11:44;;;;;;;23.35;19.45;;;17.60;99.90;;;;;;5064009;28;20103;-71
2023/09/16 07:14:10;;;;;;;20.75;15.18;;;17.80;99.90;;;;;;5060297;28;20024;-71
2023/09/16 07:16:38;;;;;;;18.10;15.07;;;17.90;99.90;;;;;;5062193;28;20464;-71
2023/09/16 07:19:04;;;;;;;15.88;14.13;;;18.00;99.90;;;;;;5059512;28;20029;-75
2023/09/16 07:21:31;;;;;;;16.15;13.68;;;18.20;99.90;;;;;;5064093;28;20031;-73
2023/09/16 07:24:00;;;;;;;15.80;14.10;;;18.30;99.90;;;;;;5061986;28;20028;-77
2023/09/16 07:26:27;;;;;;;17.15;13.35;;;18.50;99.90;;;;;;5061839;28;20506;-75
2023/09/16 07:28:53;;;;;;;16.80;15.00;;;18.70;99.90;;;;;;5061303;28;20063;-75
2023/09/16 07:31:19;;;;;;;16.33;14.02;;;18.80;99.90;;;;;;5077614;28;20021;-76
2023/09/16 07:33:45;;;;;;;15.55;13.65;;;19.00;99.90;;;;;;5068076;28;20060;-75
2023/09/16 07:36:11;;;;;;;16.65;13.75;;;19.10;99.90;;;;;;5075496;28;20028;-74
2023/09/16 07:38:37;;;;;;;24.95;13.45;;;19.20;99.90;;;;;;5081354;28;20031;-76
2023/09/16 07:41:02;;;;;;;14.38;12.25;;;19.20;99.90;;;;;;5076809;28;20468;-74
2023/09/16 07:43:28;;;;;;;15.98;12.77;;;19.30;99.90;;;;;;5071861;28;20070;-75
2023/09/16 07:45:53;;;;;;;17.23;14.70;;;19.40;99.90;;;;;;5090570;28;20044;-72
2023/09/16 07:48:19;;;;;;;15.85;12.68;;;19.60;99.90;;;;;;5101360;28;20420;-71
2023/09/16 07:50:45;;;;;;;17.30;13.93;;;19.80;99.90;;;;;;5098894;28;20038;-70
2023/09/16 07:53:11;;;;;;;15.05;11.80;;;19.80;99.90;;;;;;5089130;28;20127;-78
2023/09/16 07:55:39;;;;;;;17.55;13.20;;;20.00;99.90;;;;;;5099695;28;20064;-71
2023/09/16 07:58:04;;;;;;;16.38;13.07;;;20.00;99.90;;;;;;5100757;28;20028;-71
2023/09/16 08:00:30;;;;;;;12.52;11.15;;;20.20;99.90;;;;;;5088451;28;20388;-71
2023/09/16 08:02:56;;;;;;;14.40;11.90;;;20.30;99.90;;;;;;5095278;28;20032;-71
2023/09/16 08:05:21;;;;;;;11.85;10.55;;;20.40;99.90;;;;;;5099385;28;20023;-70
2023/09/16 08:07:47;;;;;;;13.38;11.98;;;20.50;99.90;;;;;;5103465;28;20026;-71
2023/09/16 08:10:13;;;;;;;12.02;10.65;;;20.60;99.90;;;;;;5091756;28;20028;-71
2023/09/16 08:12:38;;;;;;;11.43;9.68;;;20.70;99.90;;;;;;5092247;28;20031;-71
2023/09/16 08:15:06;;;;;;;12.25;10.95;;;20.80;99.90;;;;;;5097081;28;20075;-71
2023/09/16 08:17:33;;;;;;;12.98;9.90;;;20.90;99.90;;;;;;5094575;28;20112;-72
2023/09/16 08:20:00;;;;;;;12.13;9.02;;;21.00;99.90;;;;;;5097128;28;20102;-71
2023/09/16 08:22:27;;;;;;;13.02;9.55;;;21.10;99.90;;;;;;5094509;28;20032;-71
2023/09/16 08:24:53;;;;;;;10.68;9.48;;;21.20;99.90;;;;;;5089917;28;20417;-71
2023/09/16 08:27:20;;;;;;;13.55;10.05;;;21.30;99.90;;;;;;5094641;28;20107;-71
2023/09/16 08:29:46;;;;;;;11.45;9.50;;;21.50;99.90;;;;;;5098707;28;20157;-71
2023/09/16 08:32:12;;;;;;;11.27;8.38;;;21.50;99.90;;;;;;5094088;28;20559;-71
2023/09/16 08:34:37;;;;;;;9.43;8.45;;;21.60;99.90;;;;;;5084404;28;20131;-71
2023/09/16 08:37:03;;;;;;;8.85;7.95;;;21.70;99.90;;;;;;5092060;28;20380;-71
2023/09/16 08:39:29;;;;;;;11.27;8.43;;;21.70;99.90;;;;;;5098216;28;20024;-71
2023/09/16 08:42:05;;;;;;;8.95;8.10;;;21.80;99.90;;;;;;5095467;28;20440;-71
2023/09/16 08:44:37;;;;;;;8.68;7.30;;;22.00;99.90;;;;;;5099917;28;20058;-70
2023/09/16 08:47:08;;;;;;;9.43;7.70;;;22.10;99.90;;;;;;5096752;28;20024;-71
2023/09/16 08:49:38;;;;;;;8.90;7.57;;;22.10;99.90;;;;;;5094553;28;20085;-70
2023/09/16 08:52:07;;;;;;;9.00;8.10;;;22.20;99.90;;;;;;5092939;28;20044;-70
2023/09/16 08:54:35;;;;;;;10.82;8.38;;;22.40;99.90;;;;;;5094771;28;20030;-70
2023/09/16 08:57:01;;;;;;;11.07;8.32;;;22.60;99.90;;;;;;5093646;28;20036;-70
2023/09/16 08:59:28;;;;;;;9.85;7.22;;;22.70;99.90;;;;;;5094893;28;20111;-71
2023/09/16 09:01:53;;;;;;;8.38;7.43;;;22.70;99.90;;;;;;5093323;28;20028;-70
2023/09/16 09:04:19;;;;;;;9.23;8.32;;;22.80;99.90;;;;;;5097122;28;20043;-71
2023/09/16 09:06:45;;;;;;;9.50;8.25;;;22.90;99.90;;;;;;5094475;28;20470;-71
2023/09/16 09:09:11;;;;;;;7.93;7.22;;;23.10;99.90;;;;;;5087241;28;20067;-71
2023/09/16 09:11:38;;;;;;;9.80;7.53;;;23.20;99.90;;;;;;5096139;28;20060;-71
2023/09/16 09:14:04;;;;;;;8.07;7.15;;;23.30;99.90;;;;;;5104035;28;20043;-70
2023/09/16 09:16:32;;;;;;;8.80;7.90;;;23.50;99.90;;;;;;5113152;28;20039;-71
2023/09/16 09:18:58;;;;;;;8.73;7.03;;;23.60;99.90;;;;;;5114648;28;20035;-70
2023/09/16 09:21:24;;;;;;;8.45;7.60;;;23.60;99.90;;;;;;5107909;28;20016;-71
2023/09/16 09:23:50;;;;;;;7.63;6.85;;;23.70;99.90;;;;;;5106629;28;20092;-70
2023/09/16 09:26:15;;;;;;;8.50;7.63;;;23.80;99.90;;;;;;5097061;28;20380;-71
2023/09/16 09:28:46;;;;;;;8.60;7.65;;;23.90;99.90;;;;;;5094033;28;20038;-69
2023/09/16 09:31:12;;;;;;;7.65;6.85;;;24.00;99.90;;;;;;5092924;28;20024;-68
2023/09/16 09:33:41;;;;;;;8.55;7.18;;;24.10;99.90;;;;;;5093215;28;20523;-68
2023/09/16 09:36:15;;;;;;;8.50;7.03;;;24.10;99.90;;;;;;5095385;28;20039;-68
2023/09/16 09:38:45;;;;;;;7.60;5.82;;;24.10;99.90;;;;;;5091878;28;20115;-68
2023/09/16 09:41:11;;;;;;;7.38;6.57;;;24.20;99.90;;;;;;5094581;28;20052;-68
2023/09/16 09:43:37;;;;;;;9.10;5.47;;;24.30;99.90;;;;;;5093921;28;20089;-68
2023/09/16 09:46:03;;;;;;;5.45;4.95;;;24.40;99.90;;;;;;5088740;28;20048;-69
2023/09/16 09:48:30;;;;;;;5.72;5.22;;;24.50;99.90;;;;;;5095079;28;20370;-68
2023/09/16 09:50:56;;;;;;;6.70;6.10;;;24.70;99.90;;;;;;5091800;28;20099;-68
2023/09/16 09:53:26;;;;;;;6.53;5.93;;;24.70;99.90;;;;;;5098537;28;20107;-68
2023/09/16 09:55:53;;;;;;;7.75;5.72;;;24.70;99.90;;;;;;5106001;28;20113;-68
2023/09/16 09:58:19;;;;;;;5.32;4.82;;;24.80;99.90;;;;;;5091839;28;20035;-68
2023/09/16 10:00:49;;;;;;;6.32;5.72;;;24.80;99.90;;;;;;5099620;28;20039;-68
2023/09/16 10:03:17;;;;;;;7.53;6.70;;;25.00;99.90;;;;;;5102540;28;20024;-68
2023/09/16 10:05:43;;;;;;;7.00;6.35;;;25.20;99.90;;;;;;5112092;28;20031;-68
2023/09/16 10:08:09;;;;;;;7.78;6.38;;;25.20;99.90;;;;;;5100402;28;20153;-68
2023/09/16 10:10:36;;;;;;;6.65;6.05;;;25.30;99.90;;;;;;5104408;28;20481;-68
2023/09/16 10:13:02;;;;;;;5.93;5.38;;;25.30;99.90;;;;;;5104723;28;20111;-68
2023/09/16 10:15:39;;;;;;;6.72;6.03;;;25.40;99.90;;;;;;5105574;28;20127;-68
2023/09/16 10:18:07;;;;;;;6.20;5.10;;;25.40;99.90;;;;;;5092505;28;20100;-69
2023/09/16 10:20:37;;;;;;;6.97;6.30;;;25.40;99.90;;;;;;5103872;28;20127;-70
2023/09/16 10:23:04;;;;;;;10.00;7.82;;;25.50;99.90;;;;;;5103504;28;20476;-68
2023/09/16 10:25:29;;;;;;;7.63;5.68;;;25.60;99.90;;;;;;5096128;28;20467;-68
2023/09/16 10:27:58;;;;;;;8.73;6.10;;;25.70;99.90;;;;;;5102252;28;20019;-68
2023/09/16 10:30:25;;;;;;;6.63;5.93;;;25.90;99.90;;;;;;5104786;28;20023;-68
2023/09/16 10:32:52;;;;;;;6.13;5.10;;;25.90;99.90;;;;;;5094318;28;20043;-68
2023/09/16 10:35:21;;;;;;;5.22;4.78;;;25.90;99.90;;;;;;5097715;28;20115;-68
2023/09/16 10:37:49;;;;;;;6.03;5.50;;;25.90;99.90;;;;;;5106437;28;20058;-68
2023/09/16 10:40:17;;;;;;;7.00;5.47;;;26.00;99.90;;;;;;5111197;28;20028;-68
2023/09/16 10:42:45;;;;;;;6.85;4.82;;;26.20;99.90;;;;;;5100301;28;20433;-69
2023/09/16 10:45:14;;;;;;;5.57;5.07;;;26.30;99.90;;;;;;5099591;28;20552;-69
2023/09/16 10:47:40;;;;;;;4.80;4.32;;;26.40;99.90;;;;;;5110123;28;20023;-69
2023/09/16 10:50:06;;;;;;;6.35;3.70;;;26.50;99.90;;;;;;5098057;28;20040;-69
2023/09/16 10:52:41;;;;;;;6.43;4.60;;;26.50;99.90;;;;;;5094169;28;20026;-69
2023/09/16 10:55:15;;;;;;;4.32;3.92;;;26.70;99.90;;;;;;5091318;28;20027;-69
2023/09/16 10:58:01;;;;;;;4.32;3.85;;;26.80;99.90;;;;;;5102620;28;20483;-69
2023/09/16 11:00:30;;;;;;;4.15;3.58;;;27.00;99.90;;;;;;5099775;28;20031;-69
2023/09/16 11:03:03;;;;;;;9.43;4.50;;;27.10;99.70;;;;;;5100679;28;20030;-69
2023/09/16 11:05:30;;;;;;;4.72;4.00;;;27.20;99.70;;;;;;5110412;28;20468;-69
2023/09/16 11:07:55;;;;;;;3.88;3.58;;;27.40;99.60;;;;;;5092842;28;20020;-69
2023/09/16 11:10:23;;;;;;;3.88;3.58;;;27.60;98.80;;;;;;5103078;28;20536;-69
2023/09/16 11:12:49;;;;;;;5.10;3.83;;;27.80;98.70;;;;;;5104683;28;20088;-69
2023/09/16 11:15:15;;;;;;;4.28;3.88;;;28.00;97.90;;;;;;5105418;28;20032;-68
2023/09/16 11:17:41;;;;;;;3.80;3.40;;;28.20;97.60;;;;;;5096407;28;20423;-69
2023/09/16 11:20:31;;;;;;;3.17;2.97;;;28.20;97.70;;;;;;5104792;28;20024;-69
2023/09/16 11:22:59;;;;;;;4.15;3.75;;;28.30;96.80;;;;;;5103499;28;20035;-69
2023/09/16 11:25:40;;;;;;;3.72;3.42;;;28.60;97.20;;;;;;5085095;28;20484;-69
2023/09/16 11:28:09;;;;;;;5.65;3.63;;;28.80;97.00;;;;;;5103549;28;20287;-69
2023/09/16 11:30:37;;;;;;;4.60;3.35;;;28.90;96.00;;;;;;5102362;28;20027;-69
2023/09/16 11:33:04;;;;;;;3.35;3.05;;;29.10;94.80;;;;;;5080048;28;20097;-70
2023/09/16 11:35:31;;;;;;;3.25;3.05;;;29.30;94.90;;;;;;5097205;28;20108;-69
2023/09/16 11:37:57;;;;;;;3.58;2.75;;;29.20;93.80;;;;;;5096451;28;20057;-71
2023/09/16 11:40:28;;;;;;;2.25;2.15;;;29.10;94.00;;;;;;5109875;28;20042;-71
2023/09/16 11:42:54;;;;;;;2.90;2.70;;;28.90;93.00;;;;;;5094711;28;20024;-71
2023/09/16 11:45:21;;;;;;;3.88;2.50;;;28.80;93.40;;;;;;5099921;28;20134;-71
2023/09/16 11:47:51;;;;;;;2.40;2.15;;;28.70;93.50;;;;;;5108927;28;20424;-72
2023/09/16 11:50:20;;;;;;;3.13;2.65;;;28.70;93.20;;;;;;5096977;28;20477;-70
2023/09/16 11:52:46;;;;;;;2.83;2.63;;;28.80;93.20;;;;;;5091735;28;20476;-71
2023/09/16 11:55:13;;;;;;;2.75;2.55;;;28.80;93.20;;;;;;5102452;28;20056;-71
2023/09/16 11:57:39;;;;;;;2.75;2.55;;;28.90;93.00;;;;;;5098438;28;20016;-71
2023/09/16 12:00:07;;;;;;;3.80;2.47;;;29.00;92.30;;;;;;5088417;28;20039;-71
2023/09/16 12:02:33;;;;;;;4.03;2.63;;;28.90;92.60;;;;;;5104505;28;20114;-71
2023/09/16 12:05:01;;;;;;;2.83;2.33;;;28.90;92.20;;;;;;5105658;28;20024;-71
2023/09/16 12:07:27;;;;;;;2.33;2.17;;;28.70;92.30;;;;;;5103696;28;20419;-71
2023/09/16 12:09:53;;;;;;;2.90;2.70;;;28.60;92.00;;;;;;5097743;28;20024;-67
2023/09/16 12:12:20;;;;;;;2.65;2.45;;;28.60;92.20;;;;;;5105940;28;20020;-67
2023/09/16 12:14:45;;;;;;;2.33;2.22;;;28.70;91.90;;;;;;5095486;28;20044;-67
2023/09/16 12:17:11;;;;;;;2.20;2.10;;;28.70;91.50;;;;;;5085377;28;20024;-70
2023/09/16 12:19:47;;;;;;;2.53;2.33;;;28.80;91.50;;;;;;5100871;28;20042;-72
2023/09/16 12:22:12;;;;;;;3.00;2.80;;;28.90;91.90;;;;;;5103579;28;20028;-72
2023/09/16 12:24:38;;;;;;;2.92;2.15;;;28.90;91.70;;;;;;5097013;28;20742;-72
2023/09/16 12:27:04;;;;;;;3.53;2.38;;;28.90;91.60;;;;;;5105646;28;20039;-72
2023/09/16 12:29:31;;;;;;;2.42;2.22;;;29.00;91.20;;;;;;5098489;28;20084;-73
2023/09/16 12:32:17;;;;;;;2.40;2.30;;;29.10;91.00;;;;;;5092581;28;20445;-71
2023/09/16 12:34:43;;;;;;;2.10;2.00;;;29.10;91.00;;;;;;5098816;28;20110;-71
2023/09/16 12:37:09;;;;;;;3.38;2.50;;;29.10;91.00;;;;;;5101785;28;20619;-70
2023/09/16 12:39:35;;;;;;;2.63;2.42;;;29.20;90.90;;;;;;5107515;28;20145;-70
2023/09/16 12:42:02;;;;;;;4.65;2.75;;;29.20;90.90;;;;;;5096030;28;20050;-70
2023/09/16 12:44:34;;;;;;;2.40;2.20;;;29.30;90.70;;;;;;5103889;28;20181;-70
2023/09/16 12:47:00;;;;;;;2.70;2.50;;;29.30;90.20;;;;;;5100922;28;20032;-70
2023/09/16 12:49:27;;;;;;;3.58;2.55;;;29.30;91.00;;;;;;5097244;28;20099;-71
2023/09/16 12:51:55;;;;;;;2.85;2.65;;;29.40;90.90;;;;;;5088906;28;20020;-66
2023/09/16 12:54:20;;;;;;;3.22;2.92;;;29.60;90.80;;;;;;5105910;28;20057;-66